createdAt,value
2023-02-23T00:02:14.836Z,100.00
2023-02-23T00:04:42.870Z,100.00
2023-02-23T00:07:10.740Z,100.00
2023-02-23T00:09:40.295Z,100.00
2023-02-23T00:12:08.745Z,100.00
2023-02-23T00:17:36.663Z,98.77
2023-02-23T00:23:05.372Z,98.72
2023-02-23T00:25:34.303Z,99.55
2023-02-23T00:28:01.786Z,99.07
2023-02-23T00:30:29.418Z,98.71
2023-02-23T00:32:56.994Z,97.94
2023-02-23T00:35:24.972Z,97.36
2023-02-23T00:37:52.576Z,97.10
2023-02-23T00:40:22.964Z,96.26
2023-02-23T00:45:55.893Z,95.12
2023-02-23T00:48:23.481Z,95.10
2023-02-23T00:53:49.452Z,95.90
2023-02-23T00:56:17.669Z,96.52
2023-02-23T00:58:45.198Z,96.32
2023-02-23T01:01:15.011Z,96.17
2023-02-23T01:06:55.151Z,97.65
2023-02-23T01:12:25.199Z,99.81
2023-02-23T01:14:53.329Z,99.26
2023-02-23T01:19:58.680Z,99.40
2023-02-23T01:22:26.914Z,98.44
2023-02-23T01:24:54.513Z,99.11
2023-02-23T01:27:22.198Z,99.15
2023-02-23T01:29:49.670Z,100.00
2023-02-23T01:32:17.167Z,99.70
2023-02-23T01:37:35.842Z,99.55
2023-02-23T01:40:10.620Z,100.00
2023-02-23T01:42:41.886Z,100.00
2023-02-23T01:45:24.600Z,99.98
2023-02-23T01:47:54.438Z,99.10
2023-02-23T01:53:27.793Z,97.29
2023-02-23T01:55:59.470Z,98.02
2023-02-23T01:58:28.535Z,98.38
2023-02-23T02:04:01.453Z,96.96
2023-02-23T02:06:30.023Z,96.44
2023-02-23T02:09:06.075Z,96.43
2023-02-23T02:11:36.938Z,96.35
2023-02-23T02:14:08.930Z,97.13
2023-02-23T02:17:02.417Z,97.31
2023-02-23T02:20:14.778Z,97.37
2023-02-23T02:25:40.394Z,96.38
2023-02-23T02:28:31.262Z,96.08
2023-02-23T02:31:21.032Z,96.25
2023-02-23T02:34:26.451Z,95.57
2023-02-23T02:37:33.926Z,95.32
2023-02-23T02:40:17.239Z,95.31
2023-02-23T02:42:57.241Z,95.19
2023-02-23T02:45:28.318Z,96.78
2023-02-23T02:47:59.934Z,96.68
2023-02-23T02:50:34.660Z,96.45
2023-02-23T02:53:06.697Z,95.67
2023-02-23T02:55:37.354Z,96.19
2023-02-23T02:58:08.090Z,96.18
2023-02-23T03:00:55.973Z,96.71
2023-02-23T03:03:49.649Z,96.53
2023-02-23T03:06:36.354Z,95.99
2023-02-23T03:09:32.410Z,95.88
2023-02-23T03:12:25.128Z,95.51
2023-02-23T03:15:16.412Z,95.29
2023-02-23T03:21:00.631Z,94.91
2023-02-23T03:23:48.951Z,95.00
2023-02-23T03:26:40.419Z,95.61
2023-02-23T03:29:28.549Z,95.65
2023-02-23T03:32:22.021Z,95.65
2023-02-23T03:35:12.824Z,97.25
2023-02-23T03:38:01.429Z,99.73
2023-02-23T03:40:48.326Z,100.00
2023-02-23T03:46:26.625Z,98.56
2023-02-23T03:49:13.026Z,97.66
2023-02-23T03:52:01.559Z,98.54
2023-02-23T03:54:50.266Z,97.75
2023-02-23T03:57:41.687Z,98.26
2023-02-23T04:00:31.745Z,98.52
2023-02-23T04:03:19.672Z,98.06
2023-02-23T04:06:05.344Z,97.54
2023-02-23T04:11:53.533Z,98.17
2023-02-23T04:14:23.793Z,97.85
2023-02-23T04:16:50.569Z,97.42
2023-02-23T04:19:19.362Z,97.96
2023-02-23T04:21:46.800Z,97.58
2023-02-23T04:24:14.269Z,97.53
2023-02-23T04:26:42.225Z,97.18
2023-02-23T04:29:09.658Z,97.31
2023-02-23T04:34:41.070Z,97.04
2023-02-23T04:37:08.866Z,97.22
2023-02-23T04:39:36.314Z,96.85
2023-02-23T04:42:03.800Z,96.49
2023-02-23T04:44:31.284Z,96.91
2023-02-23T04:46:59.299Z,97.06
2023-02-23T04:49:27.572Z,97.69
2023-02-23T04:51:56.357Z,98.44
2023-02-23T04:54:23.798Z,98.71
2023-02-23T04:56:51.475Z,99.36
2023-02-23T04:59:19.019Z,98.63
2023-02-23T05:01:46.549Z,99.67
2023-02-23T05:07:14.443Z,100.00
2023-02-23T05:09:41.882Z,100.00
2023-02-23T05:12:09.479Z,100.00
2023-02-23T05:14:37.141Z,100.00
2023-02-23T05:17:04.576Z,100.00
2023-02-23T05:19:31.987Z,100.00
2023-02-23T05:21:59.389Z,100.00
2023-02-23T05:24:28.120Z,100.00
2023-02-23T05:26:55.514Z,100.00
2023-02-23T05:32:34.608Z,100.00
2023-02-23T05:35:02.667Z,100.00
2023-02-23T05:37:30.121Z,100.00
2023-02-23T05:39:58.903Z,100.00
2023-02-23T05:42:26.395Z,100.00
2023-02-23T05:44:55.922Z,100.00
2023-02-23T05:47:24.077Z,100.00
2023-02-23T05:49:51.533Z,100.00
2023-02-23T05:52:18.949Z,100.00
2023-02-23T05:54:46.624Z,99.81
2023-02-23T06:00:05.814Z,99.53
2023-02-23T06:02:33.605Z,99.68
2023-02-23T06:05:01.400Z,99.48
2023-02-23T06:07:29.381Z,99.62
2023-02-23T06:09:56.787Z,99.57
2023-02-23T06:12:24.390Z,99.74
2023-02-23T06:14:52.858Z,99.45
2023-02-23T06:20:14.650Z,98.96
2023-02-23T06:22:42.507Z,99.22
2023-02-23T06:25:12.739Z,99.00
2023-02-23T06:27:40.559Z,99.60
2023-02-23T06:30:09.028Z,99.41
2023-02-23T06:32:36.505Z,98.73
2023-02-23T06:38:02.149Z,98.36
2023-02-23T06:40:30.641Z,98.86
2023-02-23T06:42:58.103Z,98.81
2023-02-23T06:45:26.774Z,98.44
2023-02-23T06:47:54.433Z,98.45
2023-02-23T06:50:22.566Z,98.62
2023-02-23T06:52:50.249Z,98.65
2023-02-23T06:55:19.342Z,98.49
2023-02-23T06:57:49.590Z,97.94
2023-02-23T07:00:17.907Z,98.20
2023-02-23T07:02:47.042Z,98.17
2023-02-23T07:05:14.483Z,98.68
2023-02-23T07:07:42.056Z,98.76
2023-02-23T07:10:10.850Z,98.85
2023-02-23T07:12:59.494Z,98.88
2023-02-23T07:15:26.912Z,98.58
2023-02-23T07:18:19.474Z,98.34
2023-02-23T07:20:46.894Z,98.94
2023-02-23T07:23:14.280Z,98.48
2023-02-23T07:25:41.704Z,98.80
2023-02-23T07:30:56.453Z,99.37
2023-02-23T07:33:24.266Z,99.55
2023-02-23T07:35:52.142Z,99.24
2023-02-23T07:38:19.802Z,99.34
2023-02-23T07:40:47.261Z,98.53
2023-02-23T07:43:14.658Z,98.98
2023-02-23T07:45:44.482Z,99.45
2023-02-23T07:51:17.981Z,99.59
2023-02-23T07:53:45.983Z,99.50
2023-02-23T07:56:14.073Z,99.36
2023-02-23T07:58:43.684Z,99.92
2023-02-23T08:01:12.509Z,99.91
2023-02-23T08:03:40.155Z,99.75
2023-02-23T08:06:07.669Z,99.71
2023-02-23T08:08:48.300Z,99.71
2023-02-23T08:11:15.857Z,99.27
2023-02-23T08:13:43.347Z,99.30
2023-02-23T08:16:12.377Z,98.56
2023-02-23T08:18:40.004Z,98.47
2023-02-23T08:21:07.674Z,98.57
2023-02-23T08:23:35.991Z,98.38
2023-02-23T08:26:04.967Z,98.23
2023-02-23T08:28:32.452Z,98.16
2023-02-23T08:31:00.217Z,98.41
2023-02-23T08:33:27.982Z,97.92
2023-02-23T08:35:55.434Z,98.38
2023-02-23T08:38:22.863Z,97.97
2023-02-23T08:40:50.298Z,98.04
2023-02-23T08:46:18.582Z,98.09
2023-02-23T08:48:46.645Z,97.84
2023-02-23T08:51:14.522Z,97.72
2023-02-23T08:53:42.047Z,97.67
2023-02-23T08:56:09.943Z,97.81
2023-02-23T09:01:42.227Z,97.90
2023-02-23T09:04:09.694Z,98.04
2023-02-23T09:06:38.371Z,98.05
2023-02-23T09:09:06.005Z,98.14
2023-02-23T09:14:21.804Z,97.85
2023-02-23T09:16:50.613Z,97.92
2023-02-23T09:19:18.311Z,98.10
2023-02-23T09:21:45.845Z,98.29
2023-02-23T09:27:02.235Z,98.60
2023-02-23T09:29:30.440Z,98.46
2023-02-23T09:31:59.278Z,98.84
2023-02-23T09:34:30.663Z,98.61
2023-02-23T09:39:58.046Z,98.73
2023-02-23T09:42:33.622Z,98.83
2023-02-23T09:45:07.543Z,98.50
2023-02-23T09:47:45.143Z,98.30
2023-02-23T09:53:03.934Z,98.31
2023-02-23T09:55:32.858Z,97.95
2023-02-23T09:58:05.819Z,98.98
2023-02-23T10:00:38.970Z,99.19
2023-02-23T10:03:12.846Z,99.00
2023-02-23T10:05:43.877Z,98.80
2023-02-23T10:08:21.999Z,98.55
2023-02-23T10:10:52.169Z,98.23
2023-02-23T10:13:23.246Z,98.09
2023-02-23T10:15:53.713Z,98.02
2023-02-23T10:18:45.046Z,97.84
2023-02-23T10:21:17.081Z,99.23
2023-02-23T10:23:47.906Z,99.43
2023-02-23T10:26:18.473Z,99.73
2023-02-23T10:28:46.917Z,100.00
2023-02-23T10:31:27.788Z,100.00
2023-02-23T10:33:59.325Z,100.00
2023-02-23T10:39:17.767Z,100.00
2023-02-23T10:41:45.236Z,100.00
2023-02-23T10:44:19.053Z,100.00
2023-02-23T10:46:47.648Z,100.00
2023-02-23T10:52:18.005Z,100.00
2023-02-23T10:54:47.585Z,100.00
2023-02-23T11:00:10.340Z,100.00
2023-02-23T11:02:38.000Z,100.00
2023-02-23T11:08:10.132Z,100.00
2023-02-23T11:10:37.677Z,100.00
2023-02-23T11:13:05.121Z,100.00
2023-02-23T11:15:49.764Z,100.00
2023-02-23T11:21:22.029Z,100.00
2023-02-23T11:26:54.374Z,100.00
2023-02-23T11:29:26.739Z,100.00
2023-02-23T11:31:55.715Z,100.00
2023-02-23T11:34:29.829Z,100.00
2023-02-23T11:37:03.385Z,100.00
2023-02-23T11:39:31.224Z,100.00
2023-02-23T11:42:14.767Z,100.00
2023-02-23T11:44:42.740Z,100.00
2023-02-23T11:47:15.768Z,100.00
2023-02-23T11:52:56.534Z,100.00
2023-02-23T11:58:32.799Z,100.00
2023-02-23T12:01:02.167Z,100.00
2023-02-23T12:03:31.876Z,100.00
2023-02-23T12:05:59.988Z,100.00
2023-02-23T12:11:27.800Z,100.00
2023-02-23T12:13:59.942Z,100.00
2023-02-23T12:16:30.848Z,100.00
2023-02-23T12:19:00.757Z,100.00
2023-02-23T12:21:32.952Z,100.00
2023-02-23T12:24:09.610Z,100.00
2023-02-23T12:26:45.043Z,100.00
2023-02-23T12:29:20.833Z,100.00
2023-02-23T12:34:49.857Z,100.00
2023-02-23T12:37:30.041Z,100.00
2023-02-23T12:39:59.719Z,99.76
2023-02-23T12:42:35.976Z,99.32
2023-02-23T12:45:07.160Z,99.00
2023-02-23T12:47:36.891Z,98.98
2023-02-23T12:50:13.052Z,98.90
2023-02-23T12:55:50.628Z,100.00
2023-02-23T12:58:24.092Z,100.00
2023-02-23T13:00:58.096Z,100.00
2023-02-23T13:03:39.202Z,100.00
2023-02-23T13:06:30.595Z,100.00
2023-02-23T13:09:05.836Z,100.00
2023-02-23T13:11:48.004Z,100.00
2023-02-23T13:14:19.524Z,100.00
2023-02-23T13:16:53.499Z,100.00
2023-02-23T13:19:24.031Z,100.00
2023-02-23T13:21:55.109Z,100.00
2023-02-23T13:24:25.498Z,100.00
2023-02-23T13:29:55.198Z,100.00
2023-02-23T13:32:25.887Z,100.00
2023-02-23T13:34:54.710Z,100.00
2023-02-23T13:37:24.498Z,100.00
2023-02-23T13:39:57.482Z,100.00
2023-02-23T13:42:35.361Z,100.00
2023-02-23T13:45:25.400Z,100.00
2023-02-23T13:47:57.814Z,100.00
2023-02-23T13:53:49.242Z,100.00
2023-02-23T13:56:18.063Z,100.00
2023-02-23T13:58:47.616Z,100.00
2023-02-23T14:01:17.970Z,100.00
2023-02-23T14:06:56.564Z,100.00
2023-02-23T14:09:28.987Z,100.00
2023-02-23T14:12:03.096Z,100.00
2023-02-23T14:14:44.325Z,100.00
2023-02-23T14:17:35.765Z,100.00
2023-02-23T14:20:09.849Z,100.00
2023-02-23T14:25:51.104Z,100.00
2023-02-23T14:28:27.564Z,100.00
2023-02-23T14:31:01.960Z,100.00
2023-02-23T14:33:38.214Z,100.00
2023-02-23T14:36:30.643Z,100.00
2023-02-23T14:39:01.720Z,100.00
2023-02-23T14:41:46.378Z,100.00
2023-02-23T14:46:58.165Z,100.00
2023-02-23T14:49:27.746Z,100.00
2023-02-23T14:51:55.934Z,100.00
2023-02-23T14:57:20.231Z,100.00
2023-02-23T15:03:00.370Z,100.00
2023-02-23T15:05:30.335Z,100.00
2023-02-23T15:08:00.165Z,100.00
2023-02-23T15:10:31.265Z,100.00
2023-02-23T15:13:01.038Z,100.00
2023-02-23T15:15:30.652Z,100.00
2023-02-23T15:18:00.233Z,100.00
2023-02-23T15:20:32.355Z,100.00
2023-02-23T15:25:50.960Z,100.00
2023-02-23T15:28:25.186Z,100.00
2023-02-23T15:30:53.884Z,100.00
2023-02-23T15:33:28.289Z,100.00
2023-02-23T15:35:58.732Z,100.00
2023-02-23T15:41:32.214Z,100.00
2023-02-23T15:44:04.557Z,100.00
2023-02-23T15:46:32.515Z,100.00
2023-02-23T15:49:03.152Z,100.00
2023-02-23T15:54:35.175Z,100.00
2023-02-23T15:57:04.613Z,100.00
2023-02-23T15:59:36.335Z,100.00
2023-02-23T16:02:10.500Z,100.00
2023-02-23T16:07:38.112Z,100.00
2023-02-23T16:10:19.553Z,100.00
2023-02-23T16:12:48.597Z,100.00
2023-02-23T16:18:18.879Z,100.00
2023-02-23T16:20:55.729Z,100.00
2023-02-23T16:23:33.249Z,100.00
2023-02-23T16:26:06.691Z,100.00
2023-02-23T16:28:35.367Z,100.00
2023-02-23T16:31:05.129Z,100.00
2023-02-23T16:33:42.565Z,100.00
2023-02-23T16:36:20.464Z,100.00
2023-02-23T16:38:58.687Z,100.00
2023-02-23T16:41:27.187Z,100.00
2023-02-23T16:43:56.269Z,100.00
2023-02-23T16:46:25.599Z,100.00
2023-02-23T16:48:54.603Z,100.00
2023-02-23T16:51:24.482Z,100.00
2023-02-23T16:53:53.345Z,100.00
2023-02-23T16:56:22.435Z,100.00
2023-02-23T16:58:53.614Z,100.00
2023-02-23T17:01:21.345Z,100.00
2023-02-23T17:03:53.293Z,100.00
2023-02-23T17:06:23.312Z,100.00
2023-02-23T17:08:58.093Z,100.00
2023-02-23T17:11:26.440Z,100.00
2023-02-23T17:16:56.737Z,100.00
2023-02-23T17:19:25.712Z,100.00
2023-02-23T17:21:54.925Z,100.00
2023-02-23T17:24:25.822Z,100.00
2023-02-23T17:29:42.396Z,100.00
2023-02-23T17:32:10.271Z,100.00
2023-02-23T17:34:37.859Z,100.00
2023-02-23T17:37:07.936Z,100.00
2023-02-23T17:39:37.534Z,100.00
2023-02-23T17:42:06.737Z,100.00
2023-02-23T17:44:34.152Z,100.00
2023-02-23T17:47:01.555Z,100.00
2023-02-23T17:49:28.952Z,100.00
2023-02-23T17:51:56.532Z,100.00
2023-02-23T17:57:24.030Z,100.00
2023-02-23T17:59:52.148Z,100.00
2023-02-23T18:02:21.437Z,100.00
2023-02-23T18:04:49.585Z,100.00
2023-02-23T18:07:17.192Z,100.00
2023-02-23T18:09:47.252Z,100.00
2023-02-23T18:12:14.711Z,100.00
2023-02-23T18:14:42.501Z,100.00
2023-02-23T18:17:10.200Z,100.00
2023-02-23T18:19:37.663Z,100.00
2023-02-23T18:22:05.304Z,100.00
2023-02-23T18:24:32.755Z,100.00
2023-02-23T18:30:04.562Z,100.00
2023-02-23T18:35:35.839Z,100.00
2023-02-23T18:38:03.518Z,100.00
2023-02-23T18:40:31.214Z,100.00
2023-02-23T18:42:59.325Z,100.00
2023-02-23T18:45:28.579Z,100.00
2023-02-23T18:47:56.061Z,100.00
2023-02-23T18:50:26.068Z,100.00
2023-02-23T18:52:55.982Z,100.00
2023-02-23T18:58:21.795Z,100.00
2023-02-23T19:00:50.593Z,100.00
2023-02-23T19:03:18.089Z,100.00
2023-02-23T19:05:49.944Z,100.00
2023-02-23T19:11:06.128Z,100.00
2023-02-23T19:13:33.676Z,100.00
2023-02-23T19:16:05.671Z,100.00
2023-02-23T19:18:33.391Z,100.00
2023-02-23T19:21:00.817Z,100.00
2023-02-23T19:26:26.012Z,100.00
2023-02-23T19:31:52.115Z,100.00
2023-02-23T19:34:19.594Z,100.00
2023-02-23T19:36:47.115Z,100.00
2023-02-23T19:39:15.385Z,100.00
2023-02-23T19:41:44.393Z,100.00
2023-02-23T19:44:12.010Z,100.00
2023-02-23T19:46:40.081Z,100.00
2023-02-23T19:49:08.996Z,100.00
2023-02-23T19:51:36.866Z,100.00
2023-02-23T19:54:04.612Z,100.00
2023-02-23T19:56:32.049Z,100.00
2023-02-23T19:59:02.146Z,100.00
2023-02-23T20:01:29.880Z,100.00
2023-02-23T20:04:01.549Z,100.00
2023-02-23T20:06:32.161Z,100.00
2023-02-23T20:11:40.462Z,100.00
2023-02-23T20:17:05.979Z,100.00
2023-02-23T20:19:33.531Z,100.00
2023-02-23T20:22:02.339Z,100.00
2023-02-23T20:24:29.822Z,100.00
2023-02-23T20:29:47.585Z,100.00
2023-02-23T20:32:15.287Z,100.00
2023-02-23T20:34:45.307Z,100.00
2023-02-23T20:37:14.302Z,100.00
2023-02-23T20:39:42.150Z,100.00
2023-02-23T20:42:09.746Z,100.00
2023-02-23T20:44:37.513Z,100.00
2023-02-23T20:47:09.059Z,100.00
2023-02-23T20:49:36.607Z,100.00
2023-02-23T20:52:04.958Z,100.00
2023-02-23T20:54:34.076Z,100.00
2023-02-23T20:57:07.310Z,100.00
2023-02-23T20:59:35.800Z,100.00
2023-02-23T21:02:03.887Z,100.00
2023-02-23T21:04:31.955Z,100.00
2023-02-23T21:07:00.048Z,100.00
2023-02-23T21:09:27.575Z,100.00
2023-02-23T21:11:56.328Z,100.00
2023-02-23T21:17:12.732Z,100.00
2023-02-23T21:19:40.285Z,100.00
2023-02-23T21:22:07.719Z,100.00
2023-02-23T21:24:35.162Z,100.00
2023-02-23T21:27:05.399Z,100.00
2023-02-23T21:29:32.874Z,100.00
2023-02-23T21:32:00.421Z,100.00
2023-02-23T21:34:27.903Z,100.00
2023-02-23T21:36:58.970Z,100.00
2023-02-23T21:39:27.920Z,100.00
2023-02-23T21:41:55.410Z,100.00
2023-02-23T21:47:27.049Z,100.00
2023-02-23T21:49:54.864Z,100.00
2023-02-23T21:52:22.514Z,100.00
2023-02-23T21:54:50.348Z,100.00
2023-02-23T21:57:17.941Z,100.00
2023-02-23T21:59:45.354Z,100.00
2023-02-23T22:02:13.357Z,100.00
2023-02-23T22:04:42.219Z,100.00
2023-02-23T22:10:11.699Z,100.00
2023-02-23T22:12:39.165Z,100.00
2023-02-23T22:15:08.224Z,100.00
2023-02-23T22:17:35.967Z,100.00
2023-02-23T22:23:03.228Z,100.00
2023-02-23T22:25:30.687Z,100.00
2023-02-23T22:27:58.108Z,100.00
2023-02-23T22:30:25.786Z,100.00
2023-02-23T22:32:53.385Z,100.00
2023-02-23T22:35:21.033Z,100.00
2023-02-23T22:37:48.494Z,100.00
2023-02-23T22:40:18.042Z,100.00
2023-02-23T22:42:47.975Z,100.00
2023-02-23T22:48:07.230Z,100.00
2023-02-23T22:50:35.203Z,100.00
2023-02-23T22:56:02.013Z,100.00
2023-02-23T22:58:29.440Z,100.00
2023-02-23T23:01:04.007Z,100.00
2023-02-23T23:03:33.848Z,99.68
2023-02-23T23:06:04.332Z,99.34
2023-02-23T23:08:45.386Z,99.24
2023-02-23T23:11:16.283Z,98.81
2023-02-23T23:16:49.611Z,100.00
2023-02-23T23:19:23.453Z,100.00
2023-02-23T23:21:54.858Z,100.00
2023-02-23T23:24:23.168Z,100.00
2023-02-23T23:26:56.215Z,100.00
2023-02-23T23:32:17.006Z,100.00
2023-02-23T23:34:48.899Z,100.00
2023-02-23T23:37:17.278Z,100.00
2023-02-23T23:40:02.044Z,100.00
2023-02-23T23:42:31.644Z,100.00
2023-02-23T23:44:59.055Z,100.00
2023-02-23T23:50:27.401Z,100.00
2023-02-23T23:52:55.219Z,100.00
2023-02-23T23:55:22.626Z,100.00
2023-02-23T23:57:52.025Z,100.00
